createdAt,value
2023-01-22T00:01:57.593Z,101389.64
2023-01-22T00:04:26.585Z,101393.02
2023-01-22T00:06:55.579Z,101399.03
2023-01-22T00:09:24.780Z,101400.78
2023-01-22T00:11:54.784Z,101396.45
2023-01-22T00:14:23.836Z,101399.92
2023-01-22T00:16:53.517Z,101397.35
2023-01-22T00:19:24.032Z,101401.55
2023-01-22T00:21:53.832Z,101400.65
2023-01-22T00:24:23.811Z,101398.89
2023-01-22T00:26:53.535Z,101400.59
2023-01-22T00:29:22.852Z,101397.13
2023-01-22T00:31:52.189Z,101404.84
2023-01-22T00:34:24.168Z,101407.36
2023-01-22T00:36:55.283Z,101402.22
2023-01-22T00:39:25.525Z,101403.11
2023-01-22T00:41:54.875Z,101409.12
2023-01-22T00:44:24.190Z,101410.74
2023-01-22T00:46:53.637Z,101420.21
2023-01-22T00:49:25.423Z,101421.92
2023-01-22T00:51:56.368Z,101423.59
2023-01-22T00:54:25.510Z,101433.02
2023-01-22T00:56:54.960Z,101428.68
2023-01-22T00:59:26.106Z,101432.11
2023-01-22T01:01:57.915Z,101430.36
2023-01-22T01:04:28.433Z,101428.68
2023-01-22T01:06:57.493Z,101437.20
2023-01-22T01:09:26.709Z,101439.77
2023-01-22T01:11:56.011Z,101439.72
2023-01-22T01:14:28.679Z,101438.01
2023-01-22T01:16:59.155Z,101433.73
2023-01-22T01:19:28.362Z,101438.01
2023-01-22T01:21:57.456Z,101441.39
2023-01-22T01:24:27.412Z,101449.10
2023-01-22T01:26:56.648Z,101438.77
2023-01-22T01:29:26.120Z,101447.34
2023-01-22T01:31:57.724Z,101441.25
2023-01-22T01:34:27.639Z,101450.66
2023-01-22T01:36:57.140Z,101448.96
2023-01-22T01:39:27.352Z,101443.77
2023-01-22T01:41:59.332Z,101445.38
2023-01-22T01:44:31.732Z,101454.80
2023-01-22T01:47:05.397Z,101455.66
2023-01-22T01:49:38.557Z,101462.56
2023-01-22T01:52:11.718Z,101453.99
2023-01-22T01:54:43.047Z,101454.80
2023-01-22T01:57:16.736Z,101460.75
2023-01-22T01:59:47.665Z,101462.42
2023-01-22T02:02:19.497Z,101461.56
2023-01-22T02:04:53.658Z,101467.50
2023-01-22T02:07:26.915Z,101470.88
2023-01-22T02:09:56.658Z,101464.07
2023-01-22T02:12:26.914Z,101469.12
2023-01-22T02:14:57.018Z,101475.97
2023-01-22T02:17:27.274Z,101469.93
2023-01-22T02:19:56.888Z,101469.93
2023-01-22T02:22:30.460Z,101470.73
2023-01-22T02:25:01.005Z,101467.30
2023-01-22T02:27:32.160Z,101472.44
2023-01-22T02:30:01.350Z,101471.55
2023-01-22T02:32:31.644Z,101462.97
2023-01-22T02:35:00.705Z,101475.88
2023-01-22T02:37:30.571Z,101474.12
2023-01-22T02:39:59.736Z,101470.73
2023-01-22T02:42:30.315Z,101470.73
2023-01-22T02:45:00.399Z,101468.05
2023-01-22T02:47:29.908Z,101477.53
2023-01-22T02:49:59.133Z,101477.44
2023-01-22T02:52:29.697Z,101467.16
2023-01-22T02:54:59.428Z,101477.44
2023-01-22T02:57:31.082Z,101479.14
2023-01-22T03:00:00.112Z,101482.52
2023-01-22T03:02:30.290Z,101488.47
2023-01-22T03:05:03.734Z,101494.47
2023-01-22T03:07:42.161Z,101496.17
2023-01-22T03:10:14.243Z,101498.75
2023-01-22T03:13:03.668Z,101506.52
2023-01-22T03:15:51.474Z,101503.94
2023-01-22T03:18:39.648Z,101515.12
2023-01-22T03:21:15.950Z,101515.03
2023-01-22T03:23:46.701Z,101519.36
2023-01-22T03:26:17.575Z,101521.93
2023-01-22T03:28:47.144Z,101519.36
2023-01-22T03:31:17.250Z,101519.36
2023-01-22T03:33:46.729Z,101515.92
2023-01-22T03:36:15.881Z,101513.36
2023-01-22T03:38:52.655Z,101510.78
2023-01-22T03:41:23.438Z,101526.20
2023-01-22T03:43:54.845Z,101524.44
2023-01-22T03:46:27.721Z,101523.48
2023-01-22T03:49:01.947Z,101529.44
2023-01-22T03:51:32.655Z,101528.56
2023-01-22T03:54:03.339Z,101542.22
2023-01-22T03:56:32.888Z,101547.36
2023-01-22T03:59:07.759Z,101541.32
2023-01-22T04:01:37.356Z,101543.98
2023-01-22T04:04:06.755Z,101534.52
2023-01-22T04:06:35.774Z,101536.19
2023-01-22T04:09:06.606Z,101539.66
2023-01-22T04:11:41.219Z,101550.73
2023-01-22T04:14:11.564Z,101552.41
2023-01-22T04:16:46.185Z,101542.97
2023-01-22T04:19:41.831Z,101542.88
2023-01-22T04:22:30.713Z,101549.78
2023-01-22T04:25:00.437Z,101552.34
2023-01-22T04:27:30.979Z,101555.72
2023-01-22T04:30:01.435Z,101566.00
2023-01-22T04:32:32.145Z,101563.38
2023-01-22T04:35:34.903Z,101565.94
2023-01-22T04:38:07.775Z,101566.75
2023-01-22T04:40:37.201Z,101567.55
2023-01-22T04:43:08.427Z,101564.98
2023-01-22T04:45:38.958Z,101575.26
2023-01-22T04:48:10.578Z,101578.63
2023-01-22T04:50:42.682Z,101581.20
2023-01-22T04:53:15.410Z,101576.97
2023-01-22T04:55:45.423Z,101579.53
2023-01-22T04:58:15.650Z,101582.10
2023-01-22T05:00:47.214Z,101586.34
2023-01-22T05:03:17.804Z,101588.91
2023-01-22T05:05:46.849Z,101587.23
2023-01-22T05:08:16.417Z,101588.91
2023-01-22T05:10:47.161Z,101588.91
2023-01-22T05:13:25.887Z,101588.10
2023-01-22T05:16:00.619Z,101586.34
2023-01-22T05:18:33.779Z,101599.19
2023-01-22T05:21:05.840Z,101591.42
2023-01-22T05:23:38.543Z,101591.42
2023-01-22T05:26:09.061Z,101589.56
2023-01-22T05:28:44.697Z,101595.53
2023-01-22T05:31:47.573Z,101593.84
2023-01-22T05:34:50.164Z,101592.97
2023-01-22T05:37:20.106Z,101603.25
2023-01-22T05:39:52.863Z,101610.11
2023-01-22T05:42:25.561Z,101612.69
2023-01-22T05:45:04.180Z,101615.34
2023-01-22T05:47:35.139Z,101620.48
2023-01-22T05:50:14.354Z,101619.52
2023-01-22T05:52:43.955Z,101624.72
2023-01-22T05:55:16.676Z,101635.00
2023-01-22T05:57:50.359Z,101626.42
2023-01-22T06:00:23.752Z,101628.09
2023-01-22T06:03:01.128Z,101630.76
2023-01-22T06:05:37.260Z,101634.19
2023-01-22T06:08:09.084Z,101644.56
2023-01-22T06:10:44.735Z,101647.94
2023-01-22T06:13:15.701Z,101650.51
2023-01-22T06:15:45.831Z,101644.47
2023-01-22T06:18:31.568Z,101644.47
2023-01-22T06:21:08.036Z,101648.74
2023-01-22T06:23:37.972Z,101646.17
2023-01-22T06:26:10.354Z,101649.61
2023-01-22T06:28:40.834Z,101649.61
2023-01-22T06:31:10.251Z,101648.74
2023-01-22T06:33:40.967Z,101655.55
2023-01-22T06:36:11.403Z,101657.31
2023-01-22T06:38:40.828Z,101658.21
2023-01-22T06:41:11.172Z,101667.69
2023-01-22T06:43:40.328Z,101665.11
2023-01-22T06:46:10.584Z,101671.92
2023-01-22T06:49:09.525Z,101674.49
2023-01-22T06:51:43.551Z,101677.96
2023-01-22T06:54:13.382Z,101684.77
2023-01-22T06:56:43.062Z,101688.14
2023-01-22T06:59:12.925Z,101696.75
2023-01-22T07:01:42.368Z,101692.47
2023-01-22T07:04:11.458Z,101695.20
2023-01-22T07:06:40.877Z,101694.23
2023-01-22T07:09:13.228Z,101703.72
2023-01-22T07:11:45.954Z,101705.41
2023-01-22T07:14:28.890Z,101713.98
2023-01-22T07:17:08.410Z,101715.69
2023-01-22T07:19:38.350Z,101722.56
2023-01-22T07:22:08.438Z,101718.33
2023-01-22T07:24:38.770Z,101716.62
2023-01-22T07:27:09.283Z,101715.76
2023-01-22T07:29:38.980Z,101712.38
2023-01-22T07:32:08.909Z,101718.39
2023-01-22T07:34:38.526Z,101722.66
2023-01-22T07:37:08.584Z,101725.29
2023-01-22T07:39:40.871Z,101727.86
2023-01-22T07:42:13.337Z,101732.20
2023-01-22T07:44:46.647Z,101734.77
2023-01-22T07:47:16.841Z,101737.40
2023-01-22T07:49:50.004Z,101740.93
2023-01-22T07:52:22.138Z,101736.59
2023-01-22T07:54:51.979Z,101747.84
2023-01-22T07:57:32.944Z,101748.73
2023-01-22T08:00:04.903Z,101745.27
2023-01-22T08:02:42.254Z,101750.50
2023-01-22T08:05:14.123Z,101751.37
2023-01-22T08:07:43.168Z,101754.91
2023-01-22T08:10:14.618Z,101752.39
2023-01-22T08:12:46.322Z,101754.16
2023-01-22T08:15:16.326Z,101755.06
2023-01-22T08:17:48.097Z,101760.33
2023-01-22T08:20:18.793Z,101748.50
2023-01-22T08:22:48.754Z,101755.56
2023-01-22T08:25:18.436Z,101753.89
2023-01-22T08:27:49.984Z,101758.20
2023-01-22T08:30:20.202Z,101762.63
2023-01-22T08:32:51.047Z,101767.03
2023-01-22T08:35:20.289Z,101772.17
2023-01-22T08:37:49.470Z,101776.44
2023-01-22T08:40:19.534Z,101774.73
2023-01-22T08:42:55.131Z,101779.88
2023-01-22T08:45:27.540Z,101794.56
2023-01-22T08:47:59.369Z,101786.05
2023-01-22T08:50:30.969Z,101791.28
2023-01-22T08:53:00.610Z,101794.72
2023-01-22T08:55:31.476Z,101796.55
2023-01-22T08:58:00.411Z,101789.80
2023-01-22T09:00:30.671Z,101802.72
2023-01-22T09:03:00.379Z,101804.42
2023-01-22T09:05:30.099Z,101814.64
2023-01-22T09:07:59.727Z,101808.60
2023-01-22T09:10:33.058Z,101814.55
2023-01-22T09:13:03.699Z,101814.55
2023-01-22T09:15:33.818Z,101814.55
2023-01-22T09:18:06.502Z,101817.92
2023-01-22T09:20:35.961Z,101813.59
2023-01-22T09:23:09.979Z,101822.27
2023-01-22T09:25:38.670Z,101826.59
2023-01-22T09:28:11.606Z,101824.92
2023-01-22T09:30:42.796Z,101816.31
2023-01-22T09:33:12.721Z,101828.36
2023-01-22T09:35:42.505Z,101820.66
2023-01-22T09:38:14.119Z,101821.55
2023-01-22T09:40:48.524Z,101826.75
2023-01-22T09:43:23.793Z,101823.28
2023-01-22T09:45:56.251Z,101822.48
2023-01-22T09:48:38.051Z,101825.95
2023-01-22T09:51:07.556Z,101821.77
2023-01-22T09:53:37.170Z,101822.70
2023-01-22T09:56:14.849Z,101827.94
2023-01-22T09:58:49.384Z,101825.43
2023-01-22T10:01:22.305Z,101834.91
2023-01-22T10:03:55.202Z,101832.34
2023-01-22T10:06:24.949Z,101828.97
2023-01-22T10:09:06.998Z,101825.59
2023-01-22T10:11:40.907Z,101835.06
2023-01-22T10:14:17.299Z,101832.56
2023-01-22T10:16:49.183Z,101825.59
2023-01-22T10:19:23.531Z,101828.16
2023-01-22T10:22:05.315Z,101819.55
2023-01-22T10:24:34.787Z,101822.86
2023-01-22T10:27:13.640Z,101830.58
2023-01-22T10:29:46.577Z,101822.05
2023-01-22T10:32:28.212Z,101823.82
2023-01-22T10:35:09.653Z,101825.59
2023-01-22T10:37:47.608Z,101824.05
2023-01-22T10:40:25.123Z,101833.46
2023-01-22T10:43:11.204Z,101819.70
2023-01-22T10:45:50.435Z,101823.30
2023-01-22T10:48:20.946Z,101819.05
2023-01-22T10:51:03.641Z,101811.46
2023-01-22T10:53:35.322Z,101808.98
2023-01-22T10:56:12.577Z,101808.18
2023-01-22T10:58:48.490Z,101807.44
2023-01-22T11:01:35.289Z,101805.02
2023-01-22T11:04:20.679Z,101806.03
2023-01-22T11:06:54.158Z,101804.42
2023-01-22T11:09:28.065Z,101803.52
2023-01-22T11:12:08.354Z,101807.05
2023-01-22T11:14:39.167Z,101802.81
2023-01-22T11:17:16.291Z,101816.54
2023-01-22T11:19:54.250Z,101813.97
2023-01-22T11:22:34.891Z,101808.82
2023-01-22T11:25:08.100Z,101804.48
2023-01-22T11:27:58.524Z,101804.48
2023-01-22T11:30:49.785Z,101809.56
2023-01-22T11:33:36.071Z,101806.99
2023-01-22T11:36:17.762Z,101810.38
2023-01-22T11:38:53.768Z,101799.93
2023-01-22T11:41:47.063Z,101802.50
2023-01-22T11:44:50.506Z,101800.83
2023-01-22T11:47:43.395Z,101797.42
2023-01-22T11:50:25.680Z,101793.02
2023-01-22T11:53:14.057Z,101796.34
2023-01-22T11:56:03.521Z,101797.89
2023-01-22T11:58:45.671Z,101797.89
2023-01-22T12:01:25.195Z,101797.95
2023-01-22T12:04:25.762Z,101800.46
2023-01-22T12:07:25.097Z,101789.22
2023-01-22T12:10:08.452Z,101799.50
2023-01-22T12:12:46.475Z,101801.17
2023-01-22T12:15:41.912Z,101805.30
2023-01-22T12:18:41.869Z,101802.59
2023-01-22T12:21:21.444Z,101797.36
2023-01-22T12:23:57.323Z,101804.21
2023-01-22T12:26:31.561Z,101805.08
2023-01-22T12:29:07.367Z,101805.88
2023-01-22T12:31:47.983Z,101807.59
2023-01-22T12:34:25.632Z,101809.20
2023-01-22T12:36:56.165Z,101806.63
2023-01-22T12:39:30.330Z,101811.61
2023-01-22T12:42:08.799Z,101807.27
2023-01-22T12:44:55.303Z,101808.17
2023-01-22T12:47:36.331Z,101818.45
2023-01-22T12:50:19.032Z,101813.31
2023-01-22T12:52:59.658Z,101813.31
2023-01-22T12:55:35.383Z,101821.90
2023-01-22T12:58:23.359Z,101819.27
2023-01-22T13:01:04.252Z,101815.83
2023-01-22T13:03:34.403Z,101821.77
2023-01-22T13:06:21.062Z,101814.86
2023-01-22T13:08:50.741Z,101828.59
2023-01-22T13:11:31.627Z,101822.48
2023-01-22T13:14:19.331Z,101819.91
2023-01-22T13:16:54.618Z,101826.75
2023-01-22T13:19:26.556Z,101831.90
2023-01-22T13:21:59.871Z,101829.17
2023-01-22T13:24:32.421Z,101833.45
2023-01-22T13:27:04.290Z,101838.58
2023-01-22T13:29:36.978Z,101840.26
2023-01-22T13:32:16.440Z,101838.42
2023-01-22T13:34:48.943Z,101832.41
2023-01-22T13:37:27.987Z,101845.27
2023-01-22T13:39:57.741Z,101847.84
2023-01-22T13:42:30.511Z,101841.80
2023-01-22T13:45:00.254Z,101836.59
2023-01-22T13:47:35.589Z,101844.30
2023-01-22T13:50:17.751Z,101835.69
2023-01-22T13:52:47.613Z,101823.73
2023-01-22T13:55:18.760Z,101825.51
2023-01-22T13:57:50.814Z,101832.25
2023-01-22T14:00:26.376Z,101827.92
2023-01-22T14:02:56.154Z,101843.28
2023-01-22T14:05:27.425Z,101849.22
2023-01-22T14:08:06.656Z,101851.86
2023-01-22T14:10:37.506Z,101853.63
2023-01-22T14:13:09.933Z,101853.63
2023-01-22T14:15:40.479Z,101860.59
2023-01-22T14:18:13.281Z,101862.37
2023-01-22T14:20:45.350Z,101866.64
2023-01-22T14:23:15.160Z,101876.12
2023-01-22T14:25:47.238Z,101873.45
2023-01-22T14:28:17.091Z,101877.63
2023-01-22T14:30:46.756Z,101879.27
2023-01-22T14:33:18.805Z,101879.17
2023-01-22T14:35:48.098Z,101884.31
2023-01-22T14:38:18.438Z,101884.25
2023-01-22T14:40:47.584Z,101890.25
2023-01-22T14:43:16.642Z,101879.11
2023-01-22T14:45:46.435Z,101884.98
2023-01-22T14:48:16.966Z,101890.92
2023-01-22T14:50:46.944Z,101884.81
2023-01-22T14:53:17.283Z,101896.77
2023-01-22T14:55:46.728Z,101896.77
2023-01-22T14:58:16.007Z,101899.27
2023-01-22T15:00:45.207Z,101909.55
2023-01-22T15:03:14.520Z,101913.83
2023-01-22T15:05:44.230Z,101924.11
2023-01-22T15:08:13.831Z,101922.23
2023-01-22T15:10:42.938Z,101924.00
2023-01-22T15:13:12.015Z,101921.44
2023-01-22T15:15:41.529Z,101928.17
2023-01-22T15:18:10.904Z,101923.84
2023-01-22T15:20:39.939Z,101925.54
2023-01-22T15:23:09.811Z,101926.41
2023-01-22T15:25:38.914Z,101928.91
2023-01-22T15:28:08.103Z,101925.54
2023-01-22T15:30:37.225Z,101928.11
2023-01-22T15:33:06.228Z,101930.68
2023-01-22T15:35:35.230Z,101938.39
2023-01-22T15:38:05.711Z,101934.95
2023-01-22T15:40:37.175Z,101937.42
2023-01-22T15:43:06.825Z,101946.03
2023-01-22T15:45:36.073Z,101945.13
2023-01-22T15:48:08.409Z,101947.70
2023-01-22T15:50:37.323Z,101946.83
2023-01-22T15:53:06.320Z,101946.91
2023-01-22T15:55:35.332Z,101946.83
2023-01-22T15:58:05.542Z,101952.04
2023-01-22T16:00:34.580Z,101951.17
2023-01-22T16:03:05.290Z,101952.84
2023-01-22T16:05:34.499Z,101957.11
2023-01-22T16:08:04.535Z,101964.95
2023-01-22T16:10:33.589Z,101966.59
2023-01-22T16:13:03.785Z,101965.69
2023-01-22T16:15:32.734Z,101969.16
2023-01-22T16:18:01.819Z,101969.96
2023-01-22T16:20:31.735Z,101969.06
2023-01-22T16:23:00.744Z,101973.33
2023-01-22T16:25:29.764Z,101980.24
2023-01-22T16:27:59.005Z,101984.48
2023-01-22T16:30:28.265Z,101984.41
2023-01-22T16:32:57.725Z,101981.77
2023-01-22T16:35:26.835Z,101991.08
2023-01-22T16:37:55.946Z,101990.17
2023-01-22T16:40:25.390Z,101982.33
2023-01-22T16:43:00.692Z,101980.56
2023-01-22T16:45:30.177Z,101980.45
2023-01-22T16:47:59.257Z,101977.89
2023-01-22T16:50:28.579Z,101977.09
2023-01-22T16:52:57.667Z,101974.45
2023-01-22T16:55:26.581Z,101983.76
2023-01-22T16:57:58.002Z,101981.19
2023-01-22T17:00:27.205Z,101984.48
2023-01-22T17:02:56.229Z,101987.05
2023-01-22T17:05:26.054Z,101996.43
2023-01-22T17:07:55.249Z,101990.32
2023-01-22T17:10:24.146Z,101998.03
2023-01-22T17:12:53.130Z,102001.33
2023-01-22T17:15:22.303Z,102008.16
2023-01-22T17:17:51.426Z,102008.06
2023-01-22T17:20:20.852Z,102001.25
2023-01-22T17:22:50.368Z,102014.17
2023-01-22T17:25:19.429Z,102016.73
2023-01-22T17:27:48.399Z,102010.73
2023-01-22T17:30:18.171Z,102003.83
2023-01-22T17:32:48.658Z,102014.09
2023-01-22T17:35:18.793Z,102019.23
2023-01-22T17:37:48.272Z,102020.91
2023-01-22T17:40:17.669Z,102029.52
2023-01-22T17:42:46.859Z,102032.95
2023-01-22T17:45:16.026Z,102037.22
2023-01-22T17:47:45.173Z,102037.22
2023-01-22T17:50:14.679Z,102036.31
2023-01-22T17:52:43.689Z,102039.79
2023-01-22T17:55:13.231Z,102041.45
2023-01-22T17:57:42.187Z,102038.09
2023-01-22T18:00:17.155Z,102042.53
2023-01-22T18:02:46.634Z,102036.49
2023-01-22T18:05:16.053Z,102045.90
2023-01-22T18:07:50.947Z,102038.98
2023-01-22T18:10:21.533Z,102045.80
2023-01-22T18:13:06.137Z,102049.27
2023-01-22T18:15:47.378Z,102053.50
2023-01-22T18:18:18.548Z,102049.27
2023-01-22T18:20:49.091Z,102055.20
2023-01-22T18:23:18.598Z,102049.16
2023-01-22T18:25:50.232Z,102050.06
2023-01-22T18:28:21.046Z,102047.50
2023-01-22T18:30:51.806Z,102048.30
2023-01-22T18:33:22.381Z,102052.63
2023-01-22T18:35:53.450Z,102052.53
2023-01-22T18:38:26.057Z,102047.31
2023-01-22T18:40:56.247Z,102052.45
2023-01-22T18:43:26.163Z,102047.14
2023-01-22T18:46:05.508Z,102047.06
2023-01-22T18:48:38.699Z,102057.34
2023-01-22T18:51:10.390Z,102053.91
2023-01-22T18:53:41.918Z,102055.64
2023-01-22T18:56:13.579Z,102059.05
2023-01-22T18:58:44.263Z,102061.61
2023-01-22T19:01:17.979Z,102067.55
2023-01-22T19:03:59.844Z,102052.13
2023-01-22T19:06:32.968Z,102063.20
2023-01-22T19:09:07.500Z,102060.64
2023-01-22T19:11:40.668Z,102062.41
2023-01-22T19:14:13.304Z,102061.61
2023-01-22T19:16:44.235Z,102058.21
2023-01-22T19:19:14.492Z,102064.25
2023-01-22T19:21:47.383Z,102062.55
2023-01-22T19:24:21.842Z,102064.18
2023-01-22T19:26:59.133Z,102064.18
2023-01-22T19:29:28.906Z,102061.61
2023-01-22T19:31:59.599Z,102065.92
2023-01-22T19:34:29.851Z,102059.05
2023-01-22T19:37:02.302Z,102064.18
2023-01-22T19:39:33.830Z,102075.25
2023-01-22T19:42:06.418Z,102083.83
2023-01-22T19:44:35.734Z,102083.03
2023-01-22T19:47:08.342Z,102093.38
2023-01-22T19:50:05.820Z,102089.87
2023-01-22T19:52:35.639Z,102092.44
2023-01-22T19:55:07.939Z,102097.64
2023-01-22T19:57:39.307Z,102092.51
2023-01-22T20:00:12.243Z,102096.84
2023-01-22T20:02:42.249Z,102094.28
2023-01-22T20:05:11.501Z,102105.42
2023-01-22T20:07:41.978Z,102102.97
2023-01-22T20:10:13.641Z,102100.39
2023-01-22T20:12:43.499Z,102099.48
2023-01-22T20:15:15.475Z,102099.59
2023-01-22T20:17:45.752Z,102106.48
2023-01-22T20:20:15.769Z,102096.20
2023-01-22T20:22:45.820Z,102096.20
2023-01-22T20:25:16.311Z,102095.41
2023-01-22T20:27:45.413Z,102098.88
2023-01-22T20:30:15.222Z,102095.33
2023-01-22T20:32:52.032Z,102097.83
2023-01-22T20:35:21.385Z,102104.73
2023-01-22T20:37:50.819Z,102107.13
2023-01-22T20:40:20.191Z,102108.79
2023-01-22T20:42:51.879Z,102107.13
2023-01-22T20:45:21.275Z,102115.63
2023-01-22T20:47:50.804Z,102118.92
2023-01-22T20:50:20.458Z,102112.98
2023-01-22T20:52:50.520Z,102118.98
2023-01-22T20:55:20.810Z,102117.30
2023-01-22T20:57:50.515Z,102119.86
2023-01-22T21:00:21.116Z,102123.33
2023-01-22T21:03:01.380Z,102124.20
2023-01-22T21:05:32.794Z,102129.34
2023-01-22T21:08:02.054Z,102133.79
2023-01-22T21:10:37.878Z,102140.59
2023-01-22T21:13:07.146Z,102138.02
2023-01-22T21:15:36.265Z,102144.06
2023-01-22T21:18:06.429Z,102140.59
2023-01-22T21:20:37.350Z,102132.02
2023-01-22T21:23:06.761Z,102144.06
2023-01-22T21:25:36.767Z,102136.25
2023-01-22T21:28:07.380Z,102132.89
2023-01-22T21:30:37.042Z,102138.92
2023-01-22T21:33:06.340Z,102145.73
2023-01-22T21:35:35.407Z,102143.16
2023-01-22T21:38:05.179Z,102149.09
2023-01-22T21:40:34.131Z,102137.16
2023-01-22T21:43:21.401Z,102136.25
2023-01-22T21:46:08.802Z,102136.25
2023-01-22T21:48:38.159Z,102134.48
2023-01-22T21:51:07.562Z,102133.61
2023-01-22T21:53:37.579Z,102134.41
2023-01-22T21:56:08.495Z,102136.97
2023-01-22T21:58:41.914Z,102130.97
2023-01-22T22:01:13.904Z,102128.39
2023-01-22T22:03:43.861Z,102139.55
2023-01-22T22:06:13.797Z,102146.38
2023-01-22T22:08:43.959Z,102149.81
2023-01-22T22:11:14.020Z,102148.12
2023-01-22T22:13:43.325Z,102142.19
2023-01-22T22:16:12.951Z,102151.59
2023-01-22T22:18:42.223Z,102148.12
2023-01-22T22:21:11.862Z,102149.02
2023-01-22T22:23:41.038Z,102157.59
2023-01-22T22:26:11.769Z,102147.32
2023-01-22T22:28:40.834Z,102154.23
2023-01-22T22:31:12.746Z,102152.56
2023-01-22T22:33:43.163Z,102161.14
2023-01-22T22:36:14.134Z,102157.78
2023-01-22T22:38:43.927Z,102166.39
2023-01-22T22:41:16.187Z,102182.67
2023-01-22T22:43:50.322Z,102175.77
2023-01-22T22:46:24.324Z,102173.19
2023-01-22T22:48:56.963Z,102174.97
2023-01-22T22:51:28.669Z,102179.31
2023-01-22T22:54:02.230Z,102177.61
2023-01-22T22:56:32.911Z,102180.29
2023-01-22T22:59:07.422Z,102180.29
2023-01-22T23:01:37.604Z,102192.34
2023-01-22T23:04:11.648Z,102196.57
2023-01-22T23:06:42.151Z,102196.57
2023-01-22T23:09:12.684Z,102191.36
2023-01-22T23:11:41.688Z,102196.50
2023-01-22T23:14:11.224Z,102199.86
2023-01-22T23:16:42.920Z,102204.20
2023-01-22T23:19:16.885Z,102200.73
2023-01-22T23:21:49.278Z,102201.53
2023-01-22T23:24:19.309Z,102204.92
2023-01-22T23:26:49.466Z,102199.67
2023-01-22T23:29:21.913Z,102209.16
2023-01-22T23:31:52.496Z,102208.36
2023-01-22T23:34:30.002Z,102208.36
2023-01-22T23:37:01.248Z,102208.36
2023-01-22T23:39:30.376Z,102211.73
2023-01-22T23:41:59.705Z,102211.73
2023-01-22T23:44:29.599Z,102209.08
2023-01-22T23:46:58.969Z,102205.61
2023-01-22T23:49:30.573Z,102202.17
2023-01-22T23:52:00.914Z,102216.00
2023-01-22T23:54:32.368Z,102216.86
2023-01-22T23:57:04.129Z,102211.73
2023-01-22T23:59:33.367Z,102210.86
